TimePDT,TemperatureF,Dew PointF,Humidity,Sea Level PressureIn,VisibilityMPH,Wind Direction,Wind SpeedMPH,Gust SpeedMPH,PrecipitationIn,Events,Conditions,WindDirDegrees,DateUTC
12:53 AM,41.0,26.1,55,30.17,-9999.0,SSW,9.2,-,N/A,,Unknown,200,2013-03-14 07:53:00
1:53 AM,42.1,26.1,53,30.15,-9999.0,SSW,11.5,-,N/A,,Unknown,210,2013-03-14 08:53:00
2:53 AM,37.9,26.1,62,30.17,-9999.0,South,6.9,-,N/A,,Unknown,190,2013-03-14 09:53:00
3:53 AM,35.1,26.1,70,30.17,-9999.0,South,6.9,-,N/A,,Unknown,190,2013-03-14 10:53:00
4:53 AM,34.0,25.0,70,30.17,-9999.0,South,6.9,-,N/A,,Unknown,180,2013-03-14 11:53:00
5:53 AM,36.0,25.0,64,30.18,-9999.0,SSW,8.1,-,N/A,,Unknown,210,2013-03-14 12:53:00
6:53 AM,34.0,25.0,70,30.23,-9999.0,SW,4.6,-,N/A,,Unknown,220,2013-03-14 13:53:00
7:53 AM,39.9,26.1,58,30.22,-9999.0,SSW,6.9,-,N/A,,Unknown,200,2013-03-14 14:53:00
8:53 AM,51.1,27.0,39,30.20,-9999.0,Calm,Calm,-,N/A,,Unknown,0,2013-03-14 15:53:00
9:53 AM,55.0,26.1,33,30.20,-9999.0,Calm,Calm,-,N/A,,Unknown,0,2013-03-14 16:53:00
10:53 AM,61.0,26.1,26,30.18,-9999.0,South,3.5,-,N/A,,Unknown,180,2013-03-14 17:53:00
11:53 AM,64.9,25.0,22,30.15,-9999.0,Variable,4.6,-,N/A,,Unknown,0,2013-03-14 18:53:00
12:53 PM,68.0,23.0,18,30.13,-9999.0,Calm,Calm,-,N/A,,Unknown,0,2013-03-14 19:53:00
1:53 PM,69.1,23.0,18,30.09,-9999.0,Calm,Calm,-,N/A,,Unknown,0,2013-03-14 20:53:00
2:53 PM,70.0,24.1,18,30.09,-9999.0,NE,4.6,-,N/A,,Unknown,40,2013-03-14 21:53:00
3:53 PM,70.0,27.0,20,30.09,-9999.0,North,6.9,-,N/A,,Unknown,350,2013-03-14 22:53:00
4:53 PM,70.0,27.0,20,30.09,-9999.0,West,3.5,-,N/A,,Unknown,270,2013-03-14 23:53:00
5:53 PM,64.0,30.9,29,30.10,-9999.0,West,4.6,-,N/A,,Unknown,270,2013-03-15 00:53:00
6:53 PM,59.0,34.0,39,30.13,-9999.0,South,4.6,-,N/A,,Unknown,170,2013-03-15 01:53:00
7:53 PM,50.0,33.1,52,30.14,-9999.0,SSE,6.9,-,N/A,,Unknown,150,2013-03-15 02:53:00
8:53 PM,46.9,33.1,59,30.13,-9999.0,South,8.1,-,N/A,,Unknown,170,2013-03-15 03:53:00
9:53 PM,50.0,30.0,46,30.11,-9999.0,Calm,Calm,-,N/A,,Unknown,0,2013-03-15 04:53:00
10:53 PM,46.0,32.0,58,30.10,-9999.0,Calm,Calm,-,N/A,,Unknown,0,2013-03-15 05:53:00
11:53 PM,44.1,32.0,63,30.08,-9999.0,South,5.8,-,N/A,,Unknown,190,2013-03-15 06:53:00